Terminal Aerodrome Forecast
Issued by NWS

Home | Current Version | Previous Version | Text Only | Print | Product List | Glossary On
Versions: 1 2 3 4 5 6 7 8 9 10 11 12 13 14 15 16 17
326
FTUS43 KMPX 030258 AAA
TAFAXN
TAF AMD
KAXN 030258Z 0303/0324 02012G22KT 3SM -SN SCT012 BKN020 OVC035
     FM030800 01016G24KT 5SM -SN BR OVC015
     FM031200 34014G22KT P6SM SCT025
     FM032100 31010KT P6SM SKC=

USA.gov is the U.S. government's official web portal to all federal, state and local government web resources and services.